sensor_id;sensor_type;location;lat;lon;timestamp;P1;durP1;ratioP1;P2;durP2;ratioP2
42726;SDS011;28372;56.832;60.658;2022-12-05T00:01:35;0.50;;;0.50;;
42726;SDS011;28372;56.832;60.658;2022-12-05T00:04:06;1.13;;;0.65;;
42726;SDS011;28372;56.832;60.658;2022-12-05T00:06:37;0.95;;;0.60;;
42726;SDS011;28372;56.832;60.658;2022-12-05T00:09:06;2.00;;;0.70;;
42726;SDS011;28372;56.832;60.658;2022-12-05T00:11:36;1.38;;;0.70;;
42726;SDS011;28372;56.832;60.658;2022-12-05T00:14:05;1.02;;;0.60;;
42726;SDS011;28372;56.832;60.658;2022-12-05T00:16:36;1.80;;;0.80;;
42726;SDS011;28372;56.832;60.658;2022-12-05T00:19:05;1.33;;;0.77;;
42726;SDS011;28372;56.832;60.658;2022-12-05T00:21:35;1.95;;;0.90;;
42726;SDS011;28372;56.832;60.658;2022-12-05T00:24:04;1.15;;;0.68;;
42726;SDS011;28372;56.832;60.658;2022-12-05T00:26:33;1.65;;;0.73;;
42726;SDS011;28372;56.832;60.658;2022-12-05T00:29:01;1.95;;;0.70;;
42726;SDS011;28372;56.832;60.658;2022-12-05T00:31:30;1.33;;;0.65;;
42726;SDS011;28372;56.832;60.658;2022-12-05T00:34:01;1.23;;;0.70;;
42726;SDS011;28372;56.832;60.658;2022-12-05T00:36:30;1.38;;;0.70;;
42726;SDS011;28372;56.832;60.658;2022-12-05T00:39:00;1.95;;;0.70;;
42726;SDS011;28372;56.832;60.658;2022-12-05T00:41:31;0.93;;;0.60;;
42726;SDS011;28372;56.832;60.658;2022-12-05T00:43:59;1.40;;;0.77;;
42726;SDS011;28372;56.832;60.658;2022-12-05T00:46:28;1.40;;;0.75;;
42726;SDS011;28372;56.832;60.658;2022-12-05T00:48:58;2.08;;;0.80;;
42726;SDS011;28372;56.832;60.658;2022-12-05T00:51:30;1.10;;;0.60;;
42726;SDS011;28372;56.832;60.658;2022-12-05T00:54:10;0.88;;;0.70;;
42726;SDS011;28372;56.832;60.658;2022-12-05T00:56:39;0.95;;;0.70;;
42726;SDS011;28372;56.832;60.658;2022-12-05T00:59:07;1.88;;;0.60;;
42726;SDS011;28372;56.832;60.658;2022-12-05T01:04:11;1.23;;;0.63;;
42726;SDS011;28372;56.832;60.658;2022-12-05T01:06:42;1.17;;;0.60;;
42726;SDS011;28372;56.832;60.658;2022-12-05T01:09:11;1.05;;;0.60;;
42726;SDS011;28372;56.832;60.658;2022-12-05T01:11:42;1.00;;;0.60;;
42726;SDS011;28372;56.832;60.658;2022-12-05T01:14:12;1.02;;;0.60;;
42726;SDS011;28372;56.832;60.658;2022-12-05T01:16:43;0.80;;;0.50;;
42726;SDS011;28372;56.832;60.658;2022-12-05T01:19:25;0.70;;;0.50;;
42726;SDS011;28372;56.832;60.658;2022-12-05T01:21:54;1.15;;;0.60;;
42726;SDS011;28372;56.832;60.658;2022-12-05T01:24:24;0.60;;;0.52;;
42726;SDS011;28372;56.832;60.658;2022-12-05T01:26:54;0.73;;;0.60;;
42726;SDS011;28372;56.832;60.658;2022-12-05T01:29:22;0.60;;;0.50;;
42726;SDS011;28372;56.832;60.658;2022-12-05T01:31:50;1.88;;;0.70;;
42726;SDS011;28372;56.832;60.658;2022-12-05T01:34:19;0.60;;;0.50;;
42726;SDS011;28372;56.832;60.658;2022-12-05T01:36:47;1.33;;;0.60;;
42726;SDS011;28372;56.832;60.658;2022-12-05T01:39:15;1.30;;;0.68;;
42726;SDS011;28372;56.832;60.658;2022-12-05T01:41:43;2.03;;;0.90;;
42726;SDS011;28372;56.832;60.658;2022-12-05T01:46:45;0.93;;;0.60;;
42726;SDS011;28372;56.832;60.658;2022-12-05T01:51:52;2.33;;;1.30;;
42726;SDS011;28372;56.832;60.658;2022-12-05T01:54:40;2.38;;;1.20;;
42726;SDS011;28372;56.832;60.658;2022-12-05T01:57:10;3.00;;;1.08;;
42726;SDS011;28372;56.832;60.658;2022-12-05T01:59:41;2.97;;;1.13;;
42726;SDS011;28372;56.832;60.658;2022-12-05T02:02:13;3.13;;;1.40;;
42726;SDS011;28372;56.832;60.658;2022-12-05T02:04:45;2.47;;;1.23;;
42726;SDS011;28372;56.832;60.658;2022-12-05T02:07:21;3.53;;;1.20;;
42726;SDS011;28372;56.832;60.658;2022-12-05T02:09:49;2.97;;;1.30;;
42726;SDS011;28372;56.832;60.658;2022-12-05T02:12:17;2.75;;;1.40;;
42726;SDS011;28372;56.832;60.658;2022-12-05T02:15:05;5.07;;;1.95;;
42726;SDS011;28372;56.832;60.658;2022-12-05T02:17:42;5.50;;;2.33;;
42726;SDS011;28372;56.832;60.658;2022-12-05T02:30:06;3.33;;;1.10;;
42726;SDS011;28372;56.832;60.658;2022-12-05T02:32:31;2.50;;;1.30;;
42726;SDS011;28372;56.832;60.658;2022-12-05T02:38:46;2.97;;;1.40;;
42726;SDS011;28372;56.832;60.658;2022-12-05T02:43:51;2.85;;;1.38;;
42726;SDS011;28372;56.832;60.658;2022-12-05T02:46:25;2.22;;;1.20;;
42726;SDS011;28372;56.832;60.658;2022-12-05T02:49:03;2.88;;;1.50;;
42726;SDS011;28372;56.832;60.658;2022-12-05T02:51:37;3.35;;;1.30;;
42726;SDS011;28372;56.832;60.658;2022-12-05T02:54:10;2.05;;;1.05;;
42726;SDS011;28372;56.832;60.658;2022-12-05T02:56:43;1.50;;;0.90;;
42726;SDS011;28372;56.832;60.658;2022-12-05T02:59:12;2.78;;;1.27;;
42726;SDS011;28372;56.832;60.658;2022-12-05T03:01:48;3.25;;;1.15;;
42726;SDS011;28372;56.832;60.658;2022-12-05T03:04:17;3.35;;;1.38;;
42726;SDS011;28372;56.832;60.658;2022-12-05T03:06:54;3.42;;;1.40;;
42726;SDS011;28372;56.832;60.658;2022-12-05T03:09:39;3.50;;;1.67;;
42726;SDS011;28372;56.832;60.658;2022-12-05T03:12:12;2.70;;;1.63;;
42726;SDS011;28372;56.832;60.658;2022-12-05T03:14:46;3.33;;;1.30;;
42726;SDS011;28372;56.832;60.658;2022-12-05T03:17:21;3.53;;;1.40;;
42726;SDS011;28372;56.832;60.658;2022-12-05T03:23:16;2.72;;;1.33;;
42726;SDS011;28372;56.832;60.658;2022-12-05T03:26:04;2.13;;;1.17;;
42726;SDS011;28372;56.832;60.658;2022-12-05T03:28:42;2.50;;;1.10;;
42726;SDS011;28372;56.832;60.658;2022-12-05T03:31:13;2.78;;;1.00;;
42726;SDS011;28372;56.832;60.658;2022-12-05T03:33:46;2.17;;;0.95;;
42726;SDS011;28372;56.832;60.658;2022-12-05T03:36:17;3.33;;;1.20;;
42726;SDS011;28372;56.832;60.658;2022-12-05T03:38:52;2.08;;;0.90;;
42726;SDS011;28372;56.832;60.658;2022-12-05T03:41:37;2.08;;;1.10;;
42726;SDS011;28372;56.832;60.658;2022-12-05T03:44:17;2.55;;;1.23;;
42726;SDS011;28372;56.832;60.658;2022-12-05T03:46:52;3.50;;;1.20;;
42726;SDS011;28372;56.832;60.658;2022-12-05T03:49:42;2.05;;;1.08;;
42726;SDS011;28372;56.832;60.658;2022-12-05T03:52:26;2.33;;;1.05;;
42726;SDS011;28372;56.832;60.658;2022-12-05T03:55:18;1.85;;;1.02;;
42726;SDS011;28372;56.832;60.658;2022-12-05T03:58:07;2.05;;;1.00;;
42726;SDS011;28372;56.832;60.658;2022-12-05T04:00:44;3.05;;;1.23;;
42726;SDS011;28372;56.832;60.658;2022-12-05T04:03:22;1.98;;;1.08;;
42726;SDS011;28372;56.832;60.658;2022-12-05T04:06:17;3.28;;;1.00;;
42726;SDS011;28372;56.832;60.658;2022-12-05T04:08:59;4.00;;;1.10;;
42726;SDS011;28372;56.832;60.658;2022-12-05T04:11:32;2.47;;;1.05;;
42726;SDS011;28372;56.832;60.658;2022-12-05T04:14:08;3.13;;;1.20;;
42726;SDS011;28372;56.832;60.658;2022-12-05T04:16:40;3.63;;;1.08;;
42726;SDS011;28372;56.832;60.658;2022-12-05T04:22:33;1.73;;;0.95;;
42726;SDS011;28372;56.832;60.658;2022-12-05T04:25:03;2.63;;;1.17;;
42726;SDS011;28372;56.832;60.658;2022-12-05T04:30:47;3.30;;;1.33;;
42726;SDS011;28372;56.832;60.658;2022-12-05T04:33:28;2.53;;;1.20;;
42726;SDS011;28372;56.832;60.658;2022-12-05T04:41:19;2.53;;;1.40;;
42726;SDS011;28372;56.832;60.658;2022-12-05T04:43:50;4.18;;;1.30;;
42726;SDS011;28372;56.832;60.658;2022-12-05T04:46:20;2.70;;;1.38;;
42726;SDS011;28372;56.832;60.658;2022-12-05T04:48:50;4.47;;;1.40;;
42726;SDS011;28372;56.832;60.658;2022-12-05T04:51:22;3.80;;;1.50;;
42726;SDS011;28372;56.832;60.658;2022-12-05T04:53:53;4.30;;;1.60;;
42726;SDS011;28372;56.832;60.658;2022-12-05T04:56:26;3.63;;;1.50;;
42726;SDS011;28372;56.832;60.658;2022-12-05T04:58:57;3.17;;;1.40;;
42726;SDS011;28372;56.832;60.658;2022-12-05T05:06:38;2.63;;;1.30;;
42726;SDS011;28372;56.832;60.658;2022-12-05T05:09:06;2.45;;;1.13;;
42726;SDS011;28372;56.832;60.658;2022-12-05T05:11:34;2.33;;;1.17;;
42726;SDS011;28372;56.832;60.658;2022-12-05T05:14:02;1.50;;;1.00;;
42726;SDS011;28372;56.832;60.658;2022-12-05T05:16:31;2.25;;;1.00;;
42726;SDS011;28372;56.832;60.658;2022-12-05T05:19:02;2.47;;;1.10;;
42726;SDS011;28372;56.832;60.658;2022-12-05T05:21:32;2.13;;;1.08;;
42726;SDS011;28372;56.832;60.658;2022-12-05T05:24:08;1.60;;;0.82;;
42726;SDS011;28372;56.832;60.658;2022-12-05T05:26:38;1.80;;;1.00;;
42726;SDS011;28372;56.832;60.658;2022-12-05T05:29:07;2.22;;;1.10;;
42726;SDS011;28372;56.832;60.658;2022-12-05T05:31:35;2.13;;;1.00;;
42726;SDS011;28372;56.832;60.658;2022-12-05T05:34:04;2.88;;;1.00;;
42726;SDS011;28372;56.832;60.658;2022-12-05T05:36:36;2.95;;;1.20;;
42726;SDS011;28372;56.832;60.658;2022-12-05T05:39:04;2.20;;;1.10;;
42726;SDS011;28372;56.832;60.658;2022-12-05T05:41:34;3.15;;;1.02;;
42726;SDS011;28372;56.832;60.658;2022-12-05T05:44:02;3.10;;;1.10;;
42726;SDS011;28372;56.832;60.658;2022-12-05T05:46:32;3.28;;;0.90;;
42726;SDS011;28372;56.832;60.658;2022-12-05T05:49:01;2.50;;;1.30;;
42726;SDS011;28372;56.832;60.658;2022-12-05T05:51:28;2.42;;;1.40;;
42726;SDS011;28372;56.832;60.658;2022-12-05T05:53:56;3.38;;;1.30;;
42726;SDS011;28372;56.832;60.658;2022-12-05T05:56:25;3.13;;;1.15;;
42726;SDS011;28372;56.832;60.658;2022-12-05T05:58:54;2.60;;;1.38;;
42726;SDS011;28372;56.832;60.658;2022-12-05T06:01:27;2.90;;;1.50;;
42726;SDS011;28372;56.832;60.658;2022-12-05T06:03:55;3.17;;;1.60;;
42726;SDS011;28372;56.832;60.658;2022-12-05T06:06:24;2.25;;;1.20;;
42726;SDS011;28372;56.832;60.658;2022-12-05T06:08:52;2.88;;;1.20;;
42726;SDS011;28372;56.832;60.658;2022-12-05T06:11:21;2.08;;;1.10;;
42726;SDS011;28372;56.832;60.658;2022-12-05T06:13:56;2.85;;;1.30;;
42726;SDS011;28372;56.832;60.658;2022-12-05T06:16:27;2.45;;;1.00;;
42726;SDS011;28372;56.832;60.658;2022-12-05T06:18:56;2.63;;;1.40;;
42726;SDS011;28372;56.832;60.658;2022-12-05T06:21:24;2.58;;;1.30;;
42726;SDS011;28372;56.832;60.658;2022-12-05T06:23:53;3.58;;;1.38;;
42726;SDS011;28372;56.832;60.658;2022-12-05T06:26:21;2.90;;;1.35;;
42726;SDS011;28372;56.832;60.658;2022-12-05T06:28:49;2.33;;;1.25;;
42726;SDS011;28372;56.832;60.658;2022-12-05T06:31:18;2.65;;;1.20;;
42726;SDS011;28372;56.832;60.658;2022-12-05T06:33:48;2.53;;;1.20;;
42726;SDS011;28372;56.832;60.658;2022-12-05T06:36:17;3.28;;;1.10;;
42726;SDS011;28372;56.832;60.658;2022-12-05T06:38:47;2.08;;;1.10;;
42726;SDS011;28372;56.832;60.658;2022-12-05T06:41:16;2.45;;;1.08;;
42726;SDS011;28372;56.832;60.658;2022-12-05T06:43:47;2.30;;;1.10;;
42726;SDS011;28372;56.832;60.658;2022-12-05T06:46:15;2.10;;;1.10;;
42726;SDS011;28372;56.832;60.658;2022-12-05T06:48:43;2.00;;;1.00;;
42726;SDS011;28372;56.832;60.658;2022-12-05T06:51:12;3.42;;;1.20;;
42726;SDS011;28372;56.832;60.658;2022-12-05T06:53:41;5.50;;;1.60;;
42726;SDS011;28372;56.832;60.658;2022-12-05T06:56:10;5.00;;;1.80;;
42726;SDS011;28372;56.832;60.658;2022-12-05T06:58:40;2.65;;;1.27;;
42726;SDS011;28372;56.832;60.658;2022-12-05T07:01:15;3.33;;;1.50;;
42726;SDS011;28372;56.832;60.658;2022-12-05T07:04:04;2.90;;;1.45;;
42726;SDS011;28372;56.832;60.658;2022-12-05T07:06:33;3.10;;;1.30;;
42726;SDS011;28372;56.832;60.658;2022-12-05T07:09:02;2.45;;;1.20;;
42726;SDS011;28372;56.832;60.658;2022-12-05T07:11:30;2.55;;;1.30;;
42726;SDS011;28372;56.832;60.658;2022-12-05T07:13:58;2.97;;;1.30;;
42726;SDS011;28372;56.832;60.658;2022-12-05T07:16:25;3.08;;;1.30;;
42726;SDS011;28372;56.832;60.658;2022-12-05T07:18:53;4.63;;;1.35;;
42726;SDS011;28372;56.832;60.658;2022-12-05T07:21:21;2.92;;;1.45;;
42726;SDS011;28372;56.832;60.658;2022-12-05T07:23:49;2.78;;;1.27;;
42726;SDS011;28372;56.832;60.658;2022-12-05T07:26:18;2.80;;;1.20;;
42726;SDS011;28372;56.832;60.658;2022-12-05T07:28:48;2.80;;;1.13;;
42726;SDS011;28372;56.832;60.658;2022-12-05T07:31:17;2.95;;;1.20;;
42726;SDS011;28372;56.832;60.658;2022-12-05T07:33:48;4.05;;;1.10;;
42726;SDS011;28372;56.832;60.658;2022-12-05T07:36:17;2.20;;;1.00;;
42726;SDS011;28372;56.832;60.658;2022-12-05T07:38:47;1.35;;;0.88;;
42726;SDS011;28372;56.832;60.658;2022-12-05T07:41:19;1.63;;;0.80;;
42726;SDS011;28372;56.832;60.658;2022-12-05T07:43:50;2.30;;;1.08;;
42726;SDS011;28372;56.832;60.658;2022-12-05T07:46:19;2.30;;;0.80;;
42726;SDS011;28372;56.832;60.658;2022-12-05T07:48:47;3.55;;;1.17;;
42726;SDS011;28372;56.832;60.658;2022-12-05T07:51:16;2.20;;;1.00;;
42726;SDS011;28372;56.832;60.658;2022-12-05T07:53:44;2.20;;;1.05;;
42726;SDS011;28372;56.832;60.658;2022-12-05T07:56:13;1.13;;;0.73;;
42726;SDS011;28372;56.832;60.658;2022-12-05T07:58:43;1.85;;;0.80;;
42726;SDS011;28372;56.832;60.658;2022-12-05T08:01:13;1.50;;;0.90;;
42726;SDS011;28372;56.832;60.658;2022-12-05T08:03:41;1.55;;;0.82;;
42726;SDS011;28372;56.832;60.658;2022-12-05T08:06:14;2.20;;;0.90;;
42726;SDS011;28372;56.832;60.658;2022-12-05T08:08:43;1.77;;;0.80;;
42726;SDS011;28372;56.832;60.658;2022-12-05T08:11:15;1.67;;;1.00;;
42726;SDS011;28372;56.832;60.658;2022-12-05T08:13:44;1.50;;;0.85;;
42726;SDS011;28372;56.832;60.658;2022-12-05T08:16:13;1.58;;;0.80;;
42726;SDS011;28372;56.832;60.658;2022-12-05T08:18:43;2.88;;;0.93;;
42726;SDS011;28372;56.832;60.658;2022-12-05T08:21:15;2.00;;;0.98;;
42726;SDS011;28372;56.832;60.658;2022-12-05T08:23:44;1.30;;;0.88;;
42726;SDS011;28372;56.832;60.658;2022-12-05T08:26:13;2.60;;;0.90;;
42726;SDS011;28372;56.832;60.658;2022-12-05T08:28:42;1.73;;;1.00;;
42726;SDS011;28372;56.832;60.658;2022-12-05T08:31:11;3.35;;;1.10;;
42726;SDS011;28372;56.832;60.658;2022-12-05T08:33:44;2.85;;;1.25;;
42726;SDS011;28372;56.832;60.658;2022-12-05T08:36:13;3.50;;;1.40;;
42726;SDS011;28372;56.832;60.658;2022-12-05T08:38:41;3.72;;;1.25;;
42726;SDS011;28372;56.832;60.658;2022-12-05T08:41:11;3.90;;;1.42;;
42726;SDS011;28372;56.832;60.658;2022-12-05T08:43:40;2.45;;;1.30;;
42726;SDS011;28372;56.832;60.658;2022-12-05T08:46:08;4.18;;;1.63;;
42726;SDS011;28372;56.832;60.658;2022-12-05T08:48:37;3.28;;;1.48;;
42726;SDS011;28372;56.832;60.658;2022-12-05T08:51:05;3.38;;;1.30;;
42726;SDS011;28372;56.832;60.658;2022-12-05T08:53:35;3.33;;;1.30;;
42726;SDS011;28372;56.832;60.658;2022-12-05T08:56:10;2.97;;;1.30;;
42726;SDS011;28372;56.832;60.658;2022-12-05T08:58:39;2.70;;;1.17;;
42726;SDS011;28372;56.832;60.658;2022-12-05T09:03:39;2.72;;;1.20;;
42726;SDS011;28372;56.832;60.658;2022-12-05T09:08:44;4.30;;;1.83;;
42726;SDS011;28372;56.832;60.658;2022-12-05T09:11:16;3.50;;;1.02;;
42726;SDS011;28372;56.832;60.658;2022-12-05T09:13:46;2.85;;;1.20;;
42726;SDS011;28372;56.832;60.658;2022-12-05T09:16:15;4.28;;;1.40;;
42726;SDS011;28372;56.832;60.658;2022-12-05T09:18:46;3.67;;;1.48;;
42726;SDS011;28372;56.832;60.658;2022-12-05T09:21:15;3.38;;;1.70;;
42726;SDS011;28372;56.832;60.658;2022-12-05T09:23:45;3.72;;;1.90;;
42726;SDS011;28372;56.832;60.658;2022-12-05T09:26:14;4.20;;;1.80;;
42726;SDS011;28372;56.832;60.658;2022-12-05T09:28:43;3.88;;;1.77;;
42726;SDS011;28372;56.832;60.658;2022-12-05T09:31:12;5.80;;;1.77;;
42726;SDS011;28372;56.832;60.658;2022-12-05T09:33:42;4.03;;;1.65;;
42726;SDS011;28372;56.832;60.658;2022-12-05T09:36:15;4.72;;;1.90;;
42726;SDS011;28372;56.832;60.658;2022-12-05T09:38:45;4.43;;;1.77;;
42726;SDS011;28372;56.832;60.658;2022-12-05T09:55:38;16.13;;;5.88;;
42726;SDS011;28372;56.832;60.658;2022-12-05T09:58:25;13.68;;;4.47;;
42726;SDS011;28372;56.832;60.658;2022-12-05T10:01:30;11.55;;;4.53;;
42726;SDS011;28372;56.832;60.658;2022-12-05T10:12:14;17.75;;;6.43;;
42726;SDS011;28372;56.832;60.658;2022-12-05T10:17:36;19.23;;;7.00;;
42726;SDS011;28372;56.832;60.658;2022-12-05T10:25:17;22.10;;;7.75;;
42726;SDS011;28372;56.832;60.658;2022-12-05T10:27:49;21.45;;;7.75;;
42726;SDS011;28372;56.832;60.658;2022-12-05T10:30:19;23.88;;;8.25;;
42726;SDS011;28372;56.832;60.658;2022-12-05T10:35:34;15.90;;;6.88;;
42726;SDS011;28372;56.832;60.658;2022-12-05T10:38:10;22.23;;;7.47;;
42726;SDS011;28372;56.832;60.658;2022-12-05T10:40:45;24.80;;;8.07;;
42726;SDS011;28372;56.832;60.658;2022-12-05T10:43:20;17.48;;;7.43;;
42726;SDS011;28372;56.832;60.658;2022-12-05T10:45:55;18.98;;;6.70;;
42726;SDS011;28372;56.832;60.658;2022-12-05T10:48:23;20.02;;;7.00;;
42726;SDS011;28372;56.832;60.658;2022-12-05T10:50:53;17.90;;;6.40;;
42726;SDS011;28372;56.832;60.658;2022-12-05T10:53:24;18.80;;;6.90;;
42726;SDS011;28372;56.832;60.658;2022-12-05T10:55:58;16.35;;;6.15;;
42726;SDS011;28372;56.832;60.658;2022-12-05T10:58:55;15.10;;;6.05;;
42726;SDS011;28372;56.832;60.658;2022-12-05T11:01:26;14.93;;;5.68;;
42726;SDS011;28372;56.832;60.658;2022-12-05T11:03:56;16.33;;;5.30;;
42726;SDS011;28372;56.832;60.658;2022-12-05T11:06:26;15.02;;;5.07;;
42726;SDS011;28372;56.832;60.658;2022-12-05T11:08:58;12.60;;;4.63;;
42726;SDS011;28372;56.832;60.658;2022-12-05T11:11:40;10.70;;;5.18;;
42726;SDS011;28372;56.832;60.658;2022-12-05T11:14:24;11.30;;;4.40;;
42726;SDS011;28372;56.832;60.658;2022-12-05T11:16:54;10.82;;;4.75;;
42726;SDS011;28372;56.832;60.658;2022-12-05T11:19:27;13.18;;;4.60;;
42726;SDS011;28372;56.832;60.658;2022-12-05T11:22:00;9.93;;;4.28;;
42726;SDS011;28372;56.832;60.658;2022-12-05T11:29:43;13.57;;;4.47;;
42726;SDS011;28372;56.832;60.658;2022-12-05T11:32:20;11.68;;;4.35;;
42726;SDS011;28372;56.832;60.658;2022-12-05T11:34:54;12.32;;;4.72;;
42726;SDS011;28372;56.832;60.658;2022-12-05T11:37:34;13.80;;;5.50;;
42726;SDS011;28372;56.832;60.658;2022-12-05T11:40:27;10.35;;;4.68;;
42726;SDS011;28372;56.832;60.658;2022-12-05T11:43:18;11.30;;;5.00;;
42726;SDS011;28372;56.832;60.658;2022-12-05T12:00:41;13.57;;;4.50;;
42726;SDS011;28372;56.832;60.658;2022-12-05T12:06:30;9.05;;;4.00;;
42726;SDS011;28372;56.832;60.658;2022-12-05T12:22:24;7.70;;;3.13;;
42726;SDS011;28372;56.832;60.658;2022-12-05T12:27:46;7.88;;;3.28;;
42726;SDS011;28372;56.832;60.658;2022-12-05T12:30:23;5.35;;;2.78;;
42726;SDS011;28372;56.832;60.658;2022-12-05T12:38:54;7.00;;;2.97;;
42726;SDS011;28372;56.832;60.658;2022-12-05T12:41:44;8.73;;;3.78;;
42726;SDS011;28372;56.832;60.658;2022-12-05T12:47:09;6.53;;;3.42;;
42726;SDS011;28372;56.832;60.658;2022-12-05T13:00:25;6.85;;;3.22;;
42726;SDS011;28372;56.832;60.658;2022-12-05T13:05:50;9.40;;;4.60;;
42726;SDS011;28372;56.832;60.658;2022-12-05T13:08:36;9.73;;;4.43;;
42726;SDS011;28372;56.832;60.658;2022-12-05T13:11:10;9.80;;;3.88;;
42726;SDS011;28372;56.832;60.658;2022-12-05T13:13:45;9.73;;;4.60;;
42726;SDS011;28372;56.832;60.658;2022-12-05T13:16:51;7.03;;;3.55;;
42726;SDS011;28372;56.832;60.658;2022-12-05T13:19:22;7.22;;;3.53;;
42726;SDS011;28372;56.832;60.658;2022-12-05T13:22:03;7.68;;;3.28;;
42726;SDS011;28372;56.832;60.658;2022-12-05T13:24:33;7.82;;;3.40;;
42726;SDS011;28372;56.832;60.658;2022-12-05T13:27:05;8.75;;;3.35;;
42726;SDS011;28372;56.832;60.658;2022-12-05T13:29:39;11.45;;;4.75;;
42726;SDS011;28372;56.832;60.658;2022-12-05T13:35:19;7.45;;;3.83;;
42726;SDS011;28372;56.832;60.658;2022-12-05T13:38:28;8.27;;;3.67;;
42726;SDS011;28372;56.832;60.658;2022-12-05T13:41:16;11.25;;;4.03;;
42726;SDS011;28372;56.832;60.658;2022-12-05T13:44:03;10.32;;;4.50;;
42726;SDS011;28372;56.832;60.658;2022-12-05T13:46:39;13.77;;;4.80;;
42726;SDS011;28372;56.832;60.658;2022-12-05T13:49:13;12.93;;;5.55;;
42726;SDS011;28372;56.832;60.658;2022-12-05T13:51:45;11.20;;;5.10;;
42726;SDS011;28372;56.832;60.658;2022-12-05T13:54:14;12.65;;;5.30;;
42726;SDS011;28372;56.832;60.658;2022-12-05T13:56:53;11.88;;;4.85;;
42726;SDS011;28372;56.832;60.658;2022-12-05T14:07:40;10.80;;;5.22;;
42726;SDS011;28372;56.832;60.658;2022-12-05T14:10:12;10.88;;;4.80;;
42726;SDS011;28372;56.832;60.658;2022-12-05T14:12:54;10.48;;;4.97;;
42726;SDS011;28372;56.832;60.658;2022-12-05T14:15:30;14.93;;;6.30;;
42726;SDS011;28372;56.832;60.658;2022-12-05T14:18:09;10.40;;;4.35;;
42726;SDS011;28372;56.832;60.658;2022-12-05T14:21:04;10.18;;;4.38;;
42726;SDS011;28372;56.832;60.658;2022-12-05T14:26:36;11.43;;;4.40;;
42726;SDS011;28372;56.832;60.658;2022-12-05T14:37:41;10.40;;;4.95;;
42726;SDS011;28372;56.832;60.658;2022-12-05T14:40:34;14.45;;;5.40;;
42726;SDS011;28372;56.832;60.658;2022-12-05T14:46:13;11.35;;;5.13;;
42726;SDS011;28372;56.832;60.658;2022-12-05T14:48:46;16.15;;;5.45;;
42726;SDS011;28372;56.832;60.658;2022-12-05T14:54:07;14.52;;;5.93;;
42726;SDS011;28372;56.832;60.658;2022-12-05T14:56:42;10.05;;;4.97;;
42726;SDS011;28372;56.832;60.658;2022-12-05T14:59:25;12.95;;;5.03;;
42726;SDS011;28372;56.832;60.658;2022-12-05T15:01:59;11.65;;;4.70;;
42726;SDS011;28372;56.832;60.658;2022-12-05T15:07:28;14.65;;;5.72;;
42726;SDS011;28372;56.832;60.658;2022-12-05T15:12:32;12.23;;;5.53;;
42726;SDS011;28372;56.832;60.658;2022-12-05T15:15:14;15.30;;;5.70;;
42726;SDS011;28372;56.832;60.658;2022-12-05T15:18:08;12.38;;;5.70;;
42726;SDS011;28372;56.832;60.658;2022-12-05T15:23:41;14.82;;;6.28;;
42726;SDS011;28372;56.832;60.658;2022-12-05T15:26:20;16.90;;;6.47;;
42726;SDS011;28372;56.832;60.658;2022-12-05T15:29:10;12.15;;;5.20;;
42726;SDS011;28372;56.832;60.658;2022-12-05T15:34:39;13.52;;;5.70;;
42726;SDS011;28372;56.832;60.658;2022-12-05T15:42:27;16.05;;;5.47;;
42726;SDS011;28372;56.832;60.658;2022-12-05T15:47:43;14.10;;;5.07;;
42726;SDS011;28372;56.832;60.658;2022-12-05T15:50:12;14.35;;;5.60;;
42726;SDS011;28372;56.832;60.658;2022-12-05T15:52:44;13.75;;;5.20;;
42726;SDS011;28372;56.832;60.658;2022-12-05T15:55:14;15.18;;;4.50;;
42726;SDS011;28372;56.832;60.658;2022-12-05T15:57:51;14.95;;;5.68;;
42726;SDS011;28372;56.832;60.658;2022-12-05T16:00:37;13.88;;;5.35;;
42726;SDS011;28372;56.832;60.658;2022-12-05T16:08:20;11.43;;;4.57;;
42726;SDS011;28372;56.832;60.658;2022-12-05T16:10:50;13.05;;;4.28;;
42726;SDS011;28372;56.832;60.658;2022-12-05T16:13:18;10.93;;;4.63;;
42726;SDS011;28372;56.832;60.658;2022-12-05T16:15:51;9.73;;;4.22;;
42726;SDS011;28372;56.832;60.658;2022-12-05T16:18:26;9.38;;;4.30;;
42726;SDS011;28372;56.832;60.658;2022-12-05T16:20:56;9.02;;;4.60;;
42726;SDS011;28372;56.832;60.658;2022-12-05T16:23:26;10.55;;;4.57;;
42726;SDS011;28372;56.832;60.658;2022-12-05T16:26:30;8.95;;;4.07;;
42726;SDS011;28372;56.832;60.658;2022-12-05T16:28:57;11.18;;;3.97;;
42726;SDS011;28372;56.832;60.658;2022-12-05T16:31:30;14.70;;;5.32;;
42726;SDS011;28372;56.832;60.658;2022-12-05T16:34:03;15.05;;;4.72;;
42726;SDS011;28372;56.832;60.658;2022-12-05T16:39:57;7.68;;;3.13;;
42726;SDS011;28372;56.832;60.658;2022-12-05T16:46:51;13.07;;;5.00;;
42726;SDS011;28372;56.832;60.658;2022-12-05T16:50:05;6.28;;;2.67;;
42726;SDS011;28372;56.832;60.658;2022-12-05T16:56:13;8.20;;;3.45;;
42726;SDS011;28372;56.832;60.658;2022-12-05T16:58:46;7.03;;;3.10;;
42726;SDS011;28372;56.832;60.658;2022-12-05T17:01:18;9.20;;;3.90;;
42726;SDS011;28372;56.832;60.658;2022-12-05T17:03:49;9.65;;;4.70;;
42726;SDS011;28372;56.832;60.658;2022-12-05T17:06:20;11.20;;;4.38;;
42726;SDS011;28372;56.832;60.658;2022-12-05T17:08:50;9.38;;;4.80;;
42726;SDS011;28372;56.832;60.658;2022-12-05T17:11:19;12.35;;;4.93;;
42726;SDS011;28372;56.832;60.658;2022-12-05T17:13:51;11.57;;;5.70;;
42726;SDS011;28372;56.832;60.658;2022-12-05T17:16:21;13.18;;;6.10;;
42726;SDS011;28372;56.832;60.658;2022-12-05T17:18:49;13.65;;;5.50;;
42726;SDS011;28372;56.832;60.658;2022-12-05T17:21:23;10.77;;;5.00;;
42726;SDS011;28372;56.832;60.658;2022-12-05T17:23:53;11.38;;;4.78;;
42726;SDS011;28372;56.832;60.658;2022-12-05T17:26:21;10.80;;;4.43;;
42726;SDS011;28372;56.832;60.658;2022-12-05T17:28:49;10.82;;;4.50;;
42726;SDS011;28372;56.832;60.658;2022-12-05T17:31:19;9.88;;;4.60;;
42726;SDS011;28372;56.832;60.658;2022-12-05T17:33:49;11.88;;;5.25;;
42726;SDS011;28372;56.832;60.658;2022-12-05T17:36:18;10.60;;;5.40;;
42726;SDS011;28372;56.832;60.658;2022-12-05T17:38:49;9.60;;;4.35;;
42726;SDS011;28372;56.832;60.658;2022-12-05T17:41:20;10.80;;;4.90;;
42726;SDS011;28372;56.832;60.658;2022-12-05T17:43:49;10.63;;;4.25;;
42726;SDS011;28372;56.832;60.658;2022-12-05T17:46:18;10.13;;;4.35;;
42726;SDS011;28372;56.832;60.658;2022-12-05T17:48:48;9.48;;;4.65;;
42726;SDS011;28372;56.832;60.658;2022-12-05T17:51:18;11.00;;;4.43;;
42726;SDS011;28372;56.832;60.658;2022-12-05T17:53:46;8.77;;;4.40;;
42726;SDS011;28372;56.832;60.658;2022-12-05T17:56:14;9.95;;;3.95;;
42726;SDS011;28372;56.832;60.658;2022-12-05T17:58:42;10.25;;;4.72;;
42726;SDS011;28372;56.832;60.658;2022-12-05T18:01:12;8.98;;;4.50;;
42726;SDS011;28372;56.832;60.658;2022-12-05T18:03:42;9.45;;;4.55;;
42726;SDS011;28372;56.832;60.658;2022-12-05T18:06:10;10.52;;;4.88;;
42726;SDS011;28372;56.832;60.658;2022-12-05T18:08:37;10.23;;;4.53;;
42726;SDS011;28372;56.832;60.658;2022-12-05T18:11:06;9.93;;;4.82;;
42726;SDS011;28372;56.832;60.658;2022-12-05T18:13:33;9.20;;;4.28;;
42726;SDS011;28372;56.832;60.658;2022-12-05T18:16:01;10.90;;;5.15;;
42726;SDS011;28372;56.832;60.658;2022-12-05T18:18:30;9.68;;;4.95;;
42726;SDS011;28372;56.832;60.658;2022-12-05T18:21:02;11.18;;;4.72;;
42726;SDS011;28372;56.832;60.658;2022-12-05T18:23:30;12.15;;;5.85;;
42726;SDS011;28372;56.832;60.658;2022-12-05T18:25:58;12.15;;;5.60;;
42726;SDS011;28372;56.832;60.658;2022-12-05T18:28:26;12.77;;;5.40;;
42726;SDS011;28372;56.832;60.658;2022-12-05T18:31:04;12.98;;;6.28;;
42726;SDS011;28372;56.832;60.658;2022-12-05T18:33:32;14.85;;;6.47;;